Terminal Aerodrome Forecast
Issued by NWS

Home | Current Version | Previous Version | Text Only | Print | Product List | Glossary On
Versions: 1 2 3 4 5 6 7 8 9 10 11 12 13 14 15 16 17 18 19 20
000
FTPA31 PHFO 270529
TAFHNY
TAF
PHNY 270529Z 2706/2806 VRB05KT P6SM FEW025
     FM272000 27009KT P6SM BKN025 OVC040
     FM280400 VRB05KT P6SM FEW020 SCT040=

USA.gov is the U.S. government's official web portal to all federal, state and local government web resources and services.